createdAt,value
2023-02-09T00:00:02.349Z,103341.28
2023-02-09T00:02:30.132Z,103337.81
2023-02-09T00:04:56.598Z,103344.19
2023-02-09T00:07:23.131Z,103343.38
2023-02-09T00:09:51.536Z,103343.59
2023-02-09T00:12:37.666Z,103350.59
2023-02-09T00:15:06.880Z,103352.53
2023-02-09T00:17:35.820Z,103346.63
2023-02-09T00:20:04.467Z,103337.22
2023-02-09T00:22:31.980Z,103340.13
2023-02-09T00:24:58.556Z,103338.53
2023-02-09T00:27:25.976Z,103344.66
2023-02-09T00:29:52.607Z,103342.00
2023-02-09T00:32:19.157Z,103342.72
2023-02-09T00:34:45.596Z,103337.38
2023-02-09T00:37:12.097Z,103339.25
2023-02-09T00:39:38.623Z,103337.38
2023-02-09T00:42:06.448Z,103335.75
2023-02-09T00:44:35.731Z,103339.47
2023-02-09T00:47:02.703Z,103343.53
2023-02-09T00:49:29.776Z,103338.09
2023-02-09T00:51:56.278Z,103329.75
2023-02-09T00:54:24.091Z,103326.84
2023-02-09T00:56:50.802Z,103327.88
2023-02-09T00:59:17.476Z,103336.72
2023-02-09T01:01:44.091Z,103328.13
2023-02-09T01:04:10.573Z,103334.78
2023-02-09T01:06:38.422Z,103331.28
2023-02-09T01:09:05.038Z,103326.75
2023-02-09T01:11:31.721Z,103333.13
2023-02-09T01:14:00.671Z,103332.25
2023-02-09T01:16:30.654Z,103326.91
2023-02-09T01:19:02.158Z,103334.91
2023-02-09T01:21:30.673Z,103337.81
2023-02-09T01:23:57.404Z,103335.38
2023-02-09T01:26:23.978Z,103332.94
2023-02-09T01:28:52.706Z,103323.53
2023-02-09T01:31:23.818Z,103323.53
2023-02-09T01:33:51.244Z,103321.94
2023-02-09T01:36:17.892Z,103314.72
2023-02-09T01:38:44.413Z,103317.88
2023-02-09T01:41:11.276Z,103314.06
2023-02-09T01:43:49.538Z,103318.34
2023-02-09T01:46:17.240Z,103321.59
2023-02-09T01:48:44.109Z,103326.94
2023-02-09T01:51:11.893Z,103318.47
2023-02-09T01:53:38.730Z,103311.03
2023-02-09T01:56:11.637Z,103301.97
2023-02-09T01:58:39.034Z,103305.19
2023-02-09T02:01:05.859Z,103301.72
2023-02-09T02:03:32.902Z,103298.34
2023-02-09T02:06:06.069Z,103303.69
2023-02-09T02:08:42.403Z,103305.78
2023-02-09T02:11:09.779Z,103294.88
2023-02-09T02:13:37.928Z,103288.22
2023-02-09T02:16:11.313Z,103285.78
2023-02-09T02:18:41.328Z,103278.59
2023-02-09T02:21:27.913Z,103276.97
2023-02-09T02:24:04.581Z,103275.69
2023-02-09T02:26:52.281Z,103271.66
2023-02-09T02:29:34.648Z,103277.69
2023-02-09T02:32:09.838Z,103266.69
2023-02-09T02:34:41.243Z,103266.44
2023-02-09T02:37:29.429Z,103270.16
2023-02-09T02:40:26.979Z,103269.59
2023-02-09T02:42:57.838Z,103261.00
2023-02-09T02:45:45.204Z,103268.19
2023-02-09T02:48:23.825Z,103269.28
2023-02-09T02:50:59.658Z,103263.94
2023-02-09T02:53:31.040Z,103259.41
2023-02-09T02:56:05.964Z,103261.00
2023-02-09T02:58:34.661Z,103256.63
2023-02-09T03:01:03.119Z,103258.00
2023-02-09T03:03:34.334Z,103256.72
2023-02-09T03:06:04.373Z,103255.91
2023-02-09T03:08:31.010Z,103260.69
2023-02-09T03:10:57.907Z,103263.59
2023-02-09T03:13:39.648Z,103248.38
2023-02-09T03:16:23.642Z,103239.56
2023-02-09T03:19:02.225Z,103240.06
2023-02-09T03:21:52.208Z,103227.50
2023-02-09T03:24:35.173Z,103232.84
2023-02-09T03:27:25.186Z,103236.59
2023-02-09T03:29:57.282Z,103230.97
2023-02-09T03:32:26.133Z,103219.28
2023-02-09T03:34:55.145Z,103220.88
2023-02-09T03:37:23.009Z,103221.69
2023-02-09T03:39:49.698Z,103207.06
2023-02-09T03:42:17.290Z,103207.06
2023-02-09T03:44:43.937Z,103198.41
2023-02-09T03:47:10.639Z,103196.31
2023-02-09T03:49:40.734Z,103193.72
2023-02-09T03:52:09.856Z,103188.38
2023-02-09T03:54:37.007Z,103180.72
2023-02-09T03:57:05.231Z,103175.84
2023-02-09T03:59:36.336Z,103193.16
2023-02-09T04:02:05.336Z,103189.09
2023-02-09T04:04:32.258Z,103199.78
2023-02-09T04:06:59.096Z,103194.94
2023-02-09T04:09:26.848Z,103199.22
2023-02-09T04:11:54.461Z,103201.41
2023-02-09T04:14:20.970Z,103200.34
2023-02-09T04:16:47.808Z,103200.59
2023-02-09T04:19:15.446Z,103187.81
2023-02-09T04:21:42.139Z,103184.56
2023-02-09T04:24:10.310Z,103176.81
2023-02-09T04:26:36.840Z,103171.72
2023-02-09T04:29:05.278Z,103178.66
2023-02-09T04:31:32.105Z,103186.94
2023-02-09T04:33:58.849Z,103192.50
2023-02-09T04:36:25.347Z,103206.44
2023-02-09T04:38:51.891Z,103199.22
2023-02-09T04:41:18.573Z,103209.91
2023-02-09T04:43:47.079Z,103204.78
2023-02-09T04:46:15.368Z,103198.66
2023-02-09T04:48:42.497Z,103192.50
2023-02-09T04:51:09.818Z,103196.69
2023-02-09T04:53:36.590Z,103206.56
2023-02-09T04:56:03.592Z,103207.94
2023-02-09T04:58:48.609Z,103203.69
2023-02-09T05:01:20.592Z,103206.91
2023-02-09T05:03:48.282Z,103196.78
2023-02-09T05:06:15.119Z,103211.53
2023-02-09T05:08:41.603Z,103209.91
2023-02-09T05:11:08.172Z,103213.88
2023-02-09T05:13:34.861Z,103210.13
2023-02-09T05:16:07.450Z,103215.56
2023-02-09T05:18:34.981Z,103212.34
2023-02-09T05:21:01.578Z,103203.38
2023-02-09T05:23:28.172Z,103204.47
2023-02-09T05:25:57.462Z,103198.09
2023-02-09T05:28:25.675Z,103187.50
2023-02-09T05:30:54.201Z,103205.78
2023-02-09T05:33:23.751Z,103206.34
2023-02-09T05:35:51.566Z,103207.97
2023-02-09T05:38:18.438Z,103214.44
2023-02-09T05:40:45.471Z,103210.97
2023-02-09T05:43:13.437Z,103225.06
2023-02-09T05:45:40.041Z,103225.53
2023-02-09T05:48:06.612Z,103230.41
2023-02-09T05:50:33.364Z,103232.50
2023-02-09T05:53:01.091Z,103219.38
2023-02-09T05:55:27.630Z,103228.34
2023-02-09T05:57:54.126Z,103225.94
2023-02-09T06:00:20.990Z,103233.63
2023-02-09T06:02:48.466Z,103228.78
2023-02-09T06:05:15.039Z,103232.47
2023-02-09T06:07:41.624Z,103235.63
2023-02-09T06:10:08.653Z,103248.19
2023-02-09T06:12:35.195Z,103252.16
2023-02-09T06:15:01.708Z,103251.31
2023-02-09T06:17:29.345Z,103260.47
2023-02-09T06:19:55.903Z,103261.28
2023-02-09T06:22:22.444Z,103261.84
2023-02-09T06:24:49.115Z,103263.94
2023-02-09T06:27:15.598Z,103259.91
2023-02-09T06:29:42.125Z,103263.94
2023-02-09T06:32:08.729Z,103258.38
2023-02-09T06:34:35.304Z,103262.41
2023-02-09T06:37:01.837Z,103260.41
2023-02-09T06:39:29.519Z,103258.88
2023-02-09T06:41:56.057Z,103271.97
2023-02-09T06:44:22.569Z,103276.25
2023-02-09T06:46:49.186Z,103278.13
2023-02-09T06:49:15.666Z,103283.47
2023-02-09T06:51:42.418Z,103296.81
2023-02-09T06:54:09.165Z,103294.97
2023-02-09T06:56:35.772Z,103307.75
2023-02-09T06:59:02.295Z,103303.09
2023-02-09T07:01:28.828Z,103296.91
2023-02-09T07:03:55.393Z,103284.47
2023-02-09T07:06:22.986Z,103285.84
2023-02-09T07:08:50.315Z,103301.28
2023-02-09T07:11:19.286Z,103291.09
2023-02-09T07:13:47.597Z,103297.59
2023-02-09T07:16:15.133Z,103295.94
2023-02-09T07:18:41.712Z,103295.47
2023-02-09T07:21:11.561Z,103288.03
2023-02-09T07:23:39.015Z,103284.06
2023-02-09T07:26:08.171Z,103276.63
2023-02-09T07:28:35.623Z,103269.41
2023-02-09T07:31:06.214Z,103257.09
2023-02-09T07:33:33.377Z,103266.25
2023-02-09T07:36:00.399Z,103271.13
2023-02-09T07:38:27.015Z,103272.72
2023-02-09T07:40:53.585Z,103268.28
2023-02-09T07:43:20.515Z,103269.09
2023-02-09T07:45:47.438Z,103278.72
2023-02-09T07:48:14.621Z,103272.31
2023-02-09T07:50:41.200Z,103259.03
2023-02-09T07:53:07.968Z,103248.09
2023-02-09T07:55:34.507Z,103254.06
2023-02-09T07:58:01.534Z,103259.66
2023-02-09T08:00:28.256Z,103251.97
2023-02-09T08:02:56.256Z,103248.31
2023-02-09T08:05:32.254Z,103248.31
2023-02-09T08:07:58.958Z,103238.72
2023-02-09T08:10:26.403Z,103248.69
2023-02-09T08:13:02.685Z,103269.84
2023-02-09T08:15:33.062Z,103277.28
2023-02-09T08:18:03.017Z,103277.69
2023-02-09T08:20:32.224Z,103279.13
2023-02-09T08:23:05.233Z,103278.41
2023-02-09T08:25:32.813Z,103270.19
2023-02-09T08:27:59.639Z,103268.63
2023-02-09T08:30:27.296Z,103266.03
2023-02-09T08:32:53.838Z,103268.75
2023-02-09T08:35:20.321Z,103277.09
2023-02-09T08:37:47.931Z,103279.28
2023-02-09T08:40:15.166Z,103275.03
2023-02-09T08:42:43.176Z,103269.97
2023-02-09T08:45:10.095Z,103263.91
2023-02-09T08:47:37.697Z,103257.53
2023-02-09T08:50:05.229Z,103253.53
2023-02-09T08:52:32.707Z,103255.47
2023-02-09T08:54:59.226Z,103261.94
2023-02-09T08:57:41.676Z,103257.13
2023-02-09T09:00:10.612Z,103281.00
2023-02-09T09:02:37.159Z,103276.75
2023-02-09T09:05:03.735Z,103273.06
2023-02-09T09:07:30.263Z,103273.13
2023-02-09T09:09:56.797Z,103271.00
2023-02-09T09:12:23.301Z,103271.56
2023-02-09T09:14:50.804Z,103272.66
2023-02-09T09:17:17.578Z,103286.66
2023-02-09T09:19:44.120Z,103272.19
2023-02-09T09:22:12.033Z,103267.72
2023-02-09T09:24:40.801Z,103261.03
2023-02-09T09:27:09.028Z,103270.19
2023-02-09T09:29:36.275Z,103266.72
2023-02-09T09:32:03.467Z,103268.66
2023-02-09T09:34:30.375Z,103273.22
2023-02-09T09:36:56.940Z,103280.50
2023-02-09T09:39:25.566Z,103284.28
2023-02-09T09:41:59.358Z,103290.50
2023-02-09T09:44:29.483Z,103294.59
2023-02-09T09:47:01.169Z,103301.88
2023-02-09T09:49:31.487Z,103289.28
2023-02-09T09:52:08.809Z,103303.31
2023-02-09T09:54:36.706Z,103306.00
2023-02-09T09:57:05.294Z,103306.03
2023-02-09T09:59:38.678Z,103309.81
2023-02-09T10:02:33.079Z,103325.16
2023-02-09T10:05:16.683Z,103329.97
2023-02-09T10:07:50.695Z,103327.34
2023-02-09T10:10:30.505Z,103315.56
2023-02-09T10:13:00.028Z,103316.94
2023-02-09T10:15:28.231Z,103312.94
2023-02-09T10:17:56.726Z,103317.84
2023-02-09T10:20:45.873Z,103321.63
2023-02-09T10:23:18.067Z,103315.97
2023-02-09T10:26:00.816Z,103309.81
2023-02-09T10:28:31.503Z,103310.13
2023-02-09T10:31:02.022Z,103315.00
2023-02-09T10:33:37.122Z,103317.69
2023-02-09T10:36:06.835Z,103314.75
2023-02-09T10:38:33.807Z,103318.22
2023-02-09T10:41:01.627Z,103327.09
2023-02-09T10:43:32.337Z,103332.22
2023-02-09T10:46:02.595Z,103329.28
2023-02-09T10:48:40.757Z,103340.28
2023-02-09T10:51:13.430Z,103341.63
2023-02-09T10:53:53.547Z,103343.81
2023-02-09T10:56:23.775Z,103344.59
2023-02-09T10:58:54.208Z,103352.94
2023-02-09T11:01:28.564Z,103351.34
2023-02-09T11:04:02.428Z,103347.06
2023-02-09T11:06:41.485Z,103351.09
2023-02-09T11:09:16.448Z,103339.00
2023-02-09T11:11:44.253Z,103340.91
2023-02-09T11:14:14.291Z,103340.38
2023-02-09T11:17:03.980Z,103344.97
2023-02-09T11:20:04.879Z,103347.66
2023-02-09T11:22:58.487Z,103334.50
2023-02-09T11:25:36.294Z,103334.53
2023-02-09T11:28:02.848Z,103344.22
2023-02-09T11:30:58.526Z,103345.28
2023-02-09T11:33:31.485Z,103342.88
2023-02-09T11:36:04.074Z,103336.72
2023-02-09T11:38:40.166Z,103341.28
2023-02-09T11:41:31.653Z,103338.31
2023-02-09T11:44:01.479Z,103333.22
2023-02-09T11:46:30.564Z,103327.59
2023-02-09T11:49:03.954Z,103332.16
2023-02-09T11:51:37.412Z,103337.00
2023-02-09T11:54:22.630Z,103331.59
2023-02-09T11:56:52.703Z,103336.97
2023-02-09T11:59:33.310Z,103332.41
2023-02-09T12:02:35.534Z,103321.91
2023-02-09T12:05:03.489Z,103326.22
2023-02-09T12:08:07.107Z,103315.44
2023-02-09T12:10:55.672Z,103323.25
2023-02-09T12:13:31.100Z,103316.53
2023-02-09T12:16:02.270Z,103318.94
2023-02-09T12:18:33.550Z,103317.34
2023-02-09T12:21:02.113Z,103313.28
2023-02-09T12:23:35.257Z,103310.84
2023-02-09T12:26:03.053Z,103312.22
2023-02-09T12:28:30.729Z,103306.28
2023-02-09T12:30:58.557Z,103288.78
2023-02-09T12:33:25.140Z,103284.72
2023-02-09T12:36:08.062Z,103293.34
2023-02-09T12:39:03.907Z,103293.06
2023-02-09T12:41:33.645Z,103291.72
2023-02-09T12:44:09.390Z,103290.09
2023-02-09T12:46:45.319Z,103292.75
2023-02-09T12:49:11.836Z,103290.59
2023-02-09T12:52:00.633Z,103290.56
2023-02-09T12:54:31.404Z,103295.97
2023-02-09T12:57:18.809Z,103290.03
2023-02-09T12:59:52.617Z,103287.84
2023-02-09T13:02:39.203Z,103286.75
2023-02-09T13:05:16.936Z,103287.84
2023-02-09T13:07:55.268Z,103287.59
2023-02-09T13:10:29.310Z,103297.00
2023-02-09T13:13:05.608Z,103288.09
2023-02-09T13:15:50.643Z,103288.88
2023-02-09T13:18:21.965Z,103283.75
2023-02-09T13:20:57.525Z,103285.06
2023-02-09T13:23:34.137Z,103288.03
2023-02-09T13:26:09.266Z,103288.25
2023-02-09T13:28:36.070Z,103297.41
2023-02-09T13:31:16.929Z,103303.31
2023-02-09T13:33:51.283Z,103295.25
2023-02-09T13:36:40.895Z,103290.38
2023-02-09T13:39:08.373Z,103300.06
2023-02-09T13:41:38.676Z,103308.16
2023-02-09T13:44:20.531Z,103302.25
2023-02-09T13:47:07.607Z,103306.03
2023-02-09T13:49:34.338Z,103299.56
2023-02-09T13:52:10.180Z,103308.72
2023-02-09T13:54:37.016Z,103306.28
2023-02-09T13:57:08.673Z,103304.41
2023-02-09T13:59:35.413Z,103309.28
2023-02-09T14:02:01.982Z,103314.66
2023-02-09T14:04:32.734Z,103304.97
2023-02-09T14:07:08.370Z,103296.88
2023-02-09T14:09:50.862Z,103302.56
2023-02-09T14:12:45.870Z,103309.00
2023-02-09T14:15:33.113Z,103302.03
2023-02-09T14:17:59.802Z,103311.19
2023-02-09T14:20:26.401Z,103310.38
2023-02-09T14:22:58.956Z,103309.59
2023-02-09T14:25:30.655Z,103307.41
2023-02-09T14:27:58.010Z,103319.81
2023-02-09T14:30:27.746Z,103314.97
2023-02-09T14:32:56.618Z,103311.22
2023-02-09T14:35:31.884Z,103312.81
2023-02-09T14:38:01.495Z,103315.22
2023-02-09T14:40:28.164Z,103317.13
2023-02-09T14:43:09.214Z,103318.47
2023-02-09T14:45:39.267Z,103323.06
2023-02-09T14:48:21.411Z,103317.13
2023-02-09T14:50:50.609Z,103320.63
2023-02-09T14:53:18.166Z,103326.00
2023-02-09T14:55:45.289Z,103325.47
2023-02-09T14:58:20.366Z,103332.75
2023-02-09T15:00:47.300Z,103333.03
2023-02-09T15:03:14.026Z,103341.91
2023-02-09T15:05:40.686Z,103346.22
2023-02-09T15:08:12.478Z,103350.00
2023-02-09T15:10:45.707Z,103360.50
2023-02-09T15:13:14.531Z,103357.81
2023-02-09T15:15:42.511Z,103354.31
2023-02-09T15:18:25.597Z,103348.91
2023-02-09T15:20:52.579Z,103356.22
2023-02-09T15:23:19.426Z,103358.59
2023-02-09T15:25:46.427Z,103350.81
2023-02-09T15:28:24.648Z,103361.84
2023-02-09T15:30:51.381Z,103364.81
2023-02-09T15:33:18.016Z,103366.72
2023-02-09T15:35:44.971Z,103365.13
2023-02-09T15:38:14.922Z,103356.72
2023-02-09T15:41:04.492Z,103359.16
2023-02-09T15:43:49.954Z,103365.63
2023-02-09T15:46:52.058Z,103365.63
2023-02-09T15:49:18.638Z,103369.13
2023-02-09T15:51:45.334Z,103373.69
2023-02-09T15:54:17.596Z,103371.84
2023-02-09T15:56:44.383Z,103373.69
2023-02-09T15:59:18.688Z,103372.91
2023-02-09T16:01:45.747Z,103376.69
2023-02-09T16:04:15.914Z,103392.56
2023-02-09T16:06:50.448Z,103397.13
2023-02-09T16:09:21.382Z,103379.09
2023-02-09T16:11:48.655Z,103384.47
2023-02-09T16:14:18.053Z,103390.94
2023-02-09T16:16:45.786Z,103398.50
2023-02-09T16:19:13.260Z,103399.59
2023-02-09T16:21:42.648Z,103399.59
2023-02-09T16:24:18.990Z,103403.34
2023-02-09T16:26:45.511Z,103396.91
2023-02-09T16:29:15.488Z,103402.56
2023-02-09T16:31:42.196Z,103409.00
2023-02-09T16:34:12.689Z,103414.38
2023-02-09T16:36:40.335Z,103413.59
2023-02-09T16:39:16.490Z,103414.38
2023-02-09T16:41:50.892Z,103412.00
2023-02-09T16:44:22.187Z,103412.53
2023-02-09T16:46:53.024Z,103431.91
2023-02-09T16:49:27.851Z,103438.63
2023-02-09T16:51:57.630Z,103448.06
2023-02-09T16:54:24.289Z,103439.97
2023-02-09T16:57:24.906Z,103449.97
2023-02-09T16:59:52.995Z,103450.75
2023-02-09T17:02:32.114Z,103459.38
2023-02-09T17:05:00.648Z,103458.03
2023-02-09T17:07:39.831Z,103458.84
2023-02-09T17:10:18.189Z,103462.38
2023-02-09T17:12:45.273Z,103467.22
2023-02-09T17:15:28.532Z,103471.50
2023-02-09T17:18:01.953Z,103470.69
2023-02-09T17:20:34.775Z,103481.47
2023-02-09T17:23:01.366Z,103467.22
2023-02-09T17:25:29.147Z,103464.78
2023-02-09T17:27:55.877Z,103472.84
2023-02-09T17:30:23.496Z,103472.59
2023-02-09T17:32:58.610Z,103472.59
2023-02-09T17:35:48.861Z,103474.47
2023-02-09T17:38:22.380Z,103470.44
2023-02-09T17:40:50.384Z,103475.00
2023-02-09T17:43:17.361Z,103477.44
2023-02-09T17:45:49.240Z,103475.81
2023-02-09T17:48:17.088Z,103473.69
2023-02-09T17:50:44.932Z,103480.38
2023-02-09T17:53:16.717Z,103484.44
2023-02-09T17:55:45.266Z,103494.13
2023-02-09T17:58:13.352Z,103501.69
2023-02-09T18:00:41.396Z,103500.31
2023-02-09T18:03:14.680Z,103504.91
2023-02-09T18:05:41.861Z,103506.25
2023-02-09T18:08:09.318Z,103507.06
2023-02-09T18:10:36.162Z,103509.19
2023-02-09T18:13:03.990Z,103511.09
2023-02-09T18:15:34.844Z,103521.06
2023-02-09T18:18:01.638Z,103519.69
2023-02-09T18:20:31.425Z,103518.63
2023-02-09T18:22:59.116Z,103520.22
2023-02-09T18:25:34.709Z,103523.22
2023-02-09T18:28:02.898Z,103529.66
2023-02-09T18:30:33.984Z,103532.88
2023-02-09T18:33:01.371Z,103526.97
2023-02-09T18:35:33.032Z,103530.19
2023-02-09T18:38:02.398Z,103536.34
2023-02-09T18:40:32.002Z,103538.53
2023-02-09T18:43:00.394Z,103535.28
2023-02-09T18:45:27.494Z,103539.28
2023-02-09T18:47:55.163Z,103548.47
2023-02-09T18:50:28.381Z,103550.34
2023-02-09T18:52:58.102Z,103544.13
2023-02-09T18:55:25.712Z,103547.09
2023-02-09T18:57:54.602Z,103546.56
2023-02-09T19:00:22.562Z,103550.59
2023-02-09T19:02:50.488Z,103556.72
2023-02-09T19:05:18.450Z,103557.81
2023-02-09T19:07:45.539Z,103567.75
2023-02-09T19:10:16.266Z,103562.91
2023-02-09T19:12:44.003Z,103558.34
2023-02-09T19:15:11.307Z,103563.44
2023-02-09T19:17:40.383Z,103570.16
2023-02-09T19:20:27.998Z,103565.03
2023-02-09T19:22:55.467Z,103579.81
2023-02-09T19:25:24.582Z,103575.75
2023-02-09T19:27:52.635Z,103575.72
2023-02-09T19:30:24.881Z,103575.44
2023-02-09T19:32:57.695Z,103577.91
2023-02-09T19:35:24.740Z,103580.84
2023-02-09T19:37:52.720Z,103581.34
2023-02-09T19:40:27.494Z,103583.22
2023-02-09T19:42:55.660Z,103586.94
2023-02-09T19:45:23.045Z,103582.09
2023-02-09T19:47:49.636Z,103593.16
2023-02-09T19:50:16.987Z,103598.22
2023-02-09T19:52:46.733Z,103601.97
2023-02-09T19:55:14.933Z,103606.78
2023-02-09T19:57:42.654Z,103606.53
2023-02-09T20:00:13.093Z,103614.06
2023-02-09T20:02:39.768Z,103604.63
2023-02-09T20:05:06.901Z,103605.66
2023-02-09T20:07:33.585Z,103605.63
2023-02-09T20:10:00.185Z,103611.00
2023-02-09T20:12:26.908Z,103616.38
2023-02-09T20:14:54.579Z,103616.63
2023-02-09T20:17:21.851Z,103609.13
2023-02-09T20:19:48.405Z,103610.97
2023-02-09T20:22:15.357Z,103609.88
2023-02-09T20:24:42.948Z,103618.72
2023-02-09T20:27:10.826Z,103611.97
2023-02-09T20:29:37.552Z,103613.88
2023-02-09T20:32:04.992Z,103618.69
2023-02-09T20:34:31.622Z,103620.00
2023-02-09T20:36:58.283Z,103627.53
2023-02-09T20:39:24.972Z,103621.38
2023-02-09T20:42:14.756Z,103623.78
2023-02-09T20:45:00.290Z,103627.00
2023-02-09T20:47:27.304Z,103626.41
2023-02-09T20:49:57.277Z,103627.97
2023-02-09T20:52:23.873Z,103634.41
2023-02-09T20:54:50.411Z,103631.72
2023-02-09T20:57:17.010Z,103638.16
2023-02-09T20:59:43.599Z,103634.34
2023-02-09T21:02:15.998Z,103628.72
2023-02-09T21:04:43.716Z,103636.25
2023-02-09T21:07:10.411Z,103645.91
2023-02-09T21:09:38.430Z,103642.94
2023-02-09T21:12:06.084Z,103646.44
2023-02-09T21:14:41.531Z,103644.25
2023-02-09T21:17:09.292Z,103653.38
2023-02-09T21:19:35.988Z,103651.75
2023-02-09T21:22:02.936Z,103658.19
2023-02-09T21:24:30.406Z,103660.06
2023-02-09T21:26:57.108Z,103659.81
2023-02-09T21:29:24.682Z,103658.97
2023-02-09T21:31:52.051Z,103668.63
2023-02-09T21:34:18.653Z,103672.31
2023-02-09T21:36:45.270Z,103673.31
2023-02-09T21:39:12.027Z,103668.75
2023-02-09T21:41:58.330Z,103673.88
2023-02-09T21:44:24.882Z,103673.31
2023-02-09T21:46:51.618Z,103670.41
2023-02-09T21:49:18.208Z,103675.44
2023-02-09T21:51:44.905Z,103682.66
2023-02-09T21:54:13.888Z,103669.22
2023-02-09T21:56:40.990Z,103668.16
2023-02-09T21:59:07.691Z,103666.56
2023-02-09T22:01:34.614Z,103660.09
2023-02-09T22:04:01.433Z,103662.84
2023-02-09T22:06:29.946Z,103659.91
2023-02-09T22:08:56.754Z,103657.75
2023-02-09T22:11:23.434Z,103653.94
2023-02-09T22:13:49.938Z,103650.72
2023-02-09T22:16:20.121Z,103649.41
2023-02-09T22:18:47.529Z,103650.50
2023-02-09T22:21:14.225Z,103652.09
2023-02-09T22:23:40.844Z,103652.66
2023-02-09T22:26:07.682Z,103648.59
2023-02-09T22:28:36.489Z,103636.75
2023-02-09T22:31:09.699Z,103643.31
2023-02-09T22:33:36.665Z,103648.72
2023-02-09T22:36:06.523Z,103655.13
2023-02-09T22:38:34.618Z,103654.38
2023-02-09T22:41:07.023Z,103652.56
2023-02-09T22:43:34.724Z,103656.28
2023-02-09T22:46:01.417Z,103656.56
2023-02-09T22:48:28.232Z,103657.41
2023-02-09T22:50:54.776Z,103666.84
2023-02-09T22:53:21.188Z,103673.88
2023-02-09T22:55:49.587Z,103664.78
2023-02-09T22:58:16.405Z,103662.34
2023-02-09T23:00:43.039Z,103664.16
2023-02-09T23:03:09.619Z,103662.84
2023-02-09T23:05:36.186Z,103678.97
2023-02-09T23:08:02.740Z,103674.16
2023-02-09T23:10:29.254Z,103671.47
2023-02-09T23:12:56.737Z,103676.84
2023-02-09T23:15:23.254Z,103672.72
2023-02-09T23:17:49.767Z,103671.31
2023-02-09T23:20:16.389Z,103663.75
2023-02-09T23:22:42.921Z,103665.38
2023-02-09T23:25:09.485Z,103665.38
2023-02-09T23:27:36.049Z,103669.97
2023-02-09T23:30:02.623Z,103664.59
2023-02-09T23:32:29.127Z,103665.38
2023-02-09T23:34:55.646Z,103669.28
2023-02-09T23:37:36.693Z,103665.00
2023-02-09T23:40:04.511Z,103672.22
2023-02-09T23:42:31.048Z,103672.28
2023-02-09T23:44:57.644Z,103669.88
2023-02-09T23:47:24.181Z,103668.53
2023-02-09T23:49:51.763Z,103678.66
2023-02-09T23:52:18.395Z,103687.75
2023-02-09T23:54:45.839Z,103674.34
2023-02-09T23:57:12.459Z,103669.72
2023-02-09T23:59:39.500Z,103665.66
